RDBK12 YBOK-YBOK
Flight info
| Callsign | RDBK12 |
|---|---|
| Flight time | 0h 3m |
| Altitude | 1000 |
| Route | DCT YBOK YBOK DCT |
| Aircraft | H60/M-SDFGRY/LB1 |
Departure
| Time | 2026-05-06 13:38 |
|---|---|
| Airport | Oakey Army Aviation Centre (YBOK) |
Arrival
| Time | 2026-05-06 13:42 |
|---|---|
| Airport | Oakey Army Aviation Centre (YBOK) |
| Time | Latitude | Longitude | Altitude | Speed | Heading |
|---|---|---|---|---|---|
| 2026-05-06 12:46 | -27.41307 | 151.73599 | 1333 ft | 0 kts | 278° |
| 2026-05-06 13:33 | -27.41310 | 151.73585 | 1333 ft | 5 kts | 217° |
| 2026-05-06 13:33 | -27.41324 | 151.73560 | 1333 ft | 4 kts | 274° |
| 2026-05-06 13:33 | -27.41317 | 151.73507 | 1333 ft | 8 kts | 277° |
| 2026-05-06 13:34 | -27.41299 | 151.73455 | 1333 ft | 6 kts | 340° |
| 2026-05-06 13:34 | -27.41278 | 151.73452 | 1333 ft | 0 kts | 8° |
| 2026-05-06 13:34 | -27.41277 | 151.73452 | 1333 ft | 2 kts | 2° |
| 2026-05-06 13:34 | -27.41251 | 151.73455 | 1333 ft | 5 kts | 8° |
| 2026-05-06 13:35 | -27.41232 | 151.73496 | 1333 ft | 6 kts | 96° |
| 2026-05-06 13:35 | -27.41239 | 151.73553 | 1333 ft | 8 kts | 100° |
| 2026-05-06 13:35 | -27.41248 | 151.73620 | 1333 ft | 9 kts | 98° |
| 2026-05-06 13:35 | -27.41255 | 151.73666 | 1333 ft | 5 kts | 99° |
| 2026-05-06 13:36 | -27.41260 | 151.73694 | 1333 ft | 0 kts | 101° |
| 2026-05-06 13:38 | -27.41266 | 151.73729 | 1341 ft | 14 kts | 99° |
| 2026-05-06 13:38 | -27.41309 | 151.73976 | 1386 ft | 58 kts | 105° |
| 2026-05-06 13:38 | -27.41399 | 151.74649 | 1648 ft | 101 kts | 104° |
| 2026-05-06 13:38 | -27.41473 | 151.75518 | 1949 ft | 121 kts | 95° |
| 2026-05-06 13:39 | -27.41214 | 151.76430 | 2188 ft | 128 kts | 43° |
| 2026-05-06 13:39 | -27.40556 | 151.76945 | 2306 ft | 102 kts | 356° |
| 2026-05-06 13:39 | -27.39954 | 151.76782 | 2243 ft | 91 kts | 289° |
| 2026-05-06 13:39 | -27.39653 | 151.76111 | 2212 ft | 103 kts | 281° |
| 2026-05-06 13:40 | -27.39477 | 151.75254 | 2163 ft | 123 kts | 281° |
| 2026-05-06 13:40 | -27.39348 | 151.74239 | 2038 ft | 141 kts | 280° |
| 2026-05-06 13:40 | -27.39245 | 151.73168 | 1963 ft | 127 kts | 278° |
| 2026-05-06 13:40 | -27.39230 | 151.72279 | 1966 ft | 101 kts | 271° |
| 2026-05-06 13:41 | -27.39581 | 151.71699 | 1970 ft | 94 kts | 209° |
| 2026-05-06 13:41 | -27.40197 | 151.71530 | 1925 ft | 85 kts | 194° |
| 2026-05-06 13:41 | -27.40760 | 151.71565 | 1856 ft | 88 kts | 150° |
| 2026-05-06 13:41 | -27.41043 | 151.72196 | 1676 ft | 82 kts | 103° |
| 2026-05-06 13:42 | -27.41113 | 151.72736 | 1513 ft | 55 kts | 102° |
| 2026-05-06 13:42 | -27.41174 | 151.73094 | 1458 ft | 40 kts | 101° |
| 2026-05-06 13:42 | -27.41211 | 151.73351 | 1412 ft | 30 kts | 102° |
| 2026-05-06 13:42 | -27.41239 | 151.73563 | 1363 ft | 16 kts | 105° |
| 2026-05-06 13:43 | -27.41254 | 151.73662 | 1348 ft | 6 kts | 107° |
| 2026-05-06 13:43 | -27.41260 | 151.73694 | 1343 ft | 1 kts | 108° |
| 2026-05-06 13:43 | -27.41261 | 151.73696 | 1337 ft | 0 kts | 107° |
| 2026-05-06 13:46 | -27.41313 | 151.74019 | 1386 ft | 89 kts | 105° |
| 2026-05-06 13:47 | -27.41426 | 151.74860 | 1778 ft | 113 kts | 101° |
| 2026-05-06 13:47 | -27.41364 | 151.75706 | 2268 ft | 108 kts | 56° |
| 2026-05-06 13:47 | -27.40756 | 151.76185 | 2415 ft | 112 kts | 1° |
| 2026-05-06 13:47 | -27.40060 | 151.75965 | 2323 ft | 100 kts | 300° |
| 2026-05-06 13:48 | -27.39777 | 151.75212 | 2225 ft | 116 kts | 284° |
| 2026-05-06 13:48 | -27.39622 | 151.74325 | 2171 ft | 113 kts | 282° |
| 2026-05-06 13:48 | -27.39515 | 151.73468 | 2144 ft | 108 kts | 282° |
| 2026-05-06 13:48 | -27.39402 | 151.72646 | 2124 ft | 104 kts | 284° |
| 2026-05-06 13:49 | -27.39429 | 151.71855 | 2165 ft | 101 kts | 247° |
| 2026-05-06 13:49 | -27.40031 | 151.71482 | 2072 ft | 107 kts | 193° |
| 2026-05-06 13:49 | -27.40744 | 151.71501 | 1996 ft | 97 kts | 141° |
| 2026-05-06 13:49 | -27.41057 | 151.72062 | 1876 ft | 85 kts | 101° |
| 2026-05-06 13:50 | -27.41105 | 151.72688 | 1663 ft | 75 kts | 108° |
| 2026-05-06 13:50 | -27.41188 | 151.73224 | 1501 ft | 63 kts | 106° |
| 2026-05-06 13:50 | -27.41240 | 151.73564 | 1360 ft | 20 kts | 104° |
| 2026-05-06 13:50 | -27.41254 | 151.73647 | 1346 ft | 7 kts | 104° |
| 2026-05-06 13:51 | -27.41260 | 151.73693 | 1343 ft | 1 kts | 105° |
| 2026-05-06 13:51 | -27.41261 | 151.73694 | 1337 ft | 0 kts | 107° |
| 2026-05-06 13:53 | -27.41261 | 151.73696 | 1342 ft | 0 kts | 100° |
| 2026-05-06 13:53 | -27.41292 | 151.73852 | 1362 ft | 62 kts | 108° |
| 2026-05-06 13:53 | -27.41414 | 151.74592 | 1688 ft | 112 kts | 105° |
| 2026-05-06 13:53 | -27.41334 | 151.75439 | 2222 ft | 115 kts | 57° |
| 2026-05-06 13:54 | -27.40675 | 151.75900 | 2288 ft | 111 kts | 348° |
| 2026-05-06 13:54 | -27.40049 | 151.75546 | 2275 ft | 106 kts | 291° |
| 2026-05-06 13:54 | -27.39737 | 151.74736 | 2101 ft | 118 kts | 280° |
| 2026-05-06 13:54 | -27.39528 | 151.73809 | 2138 ft | 126 kts | 277° |
| 2026-05-06 13:55 | -27.39374 | 151.72825 | 2130 ft | 125 kts | 270° |
| 2026-05-06 13:55 | -27.39682 | 151.72122 | 2195 ft | 91 kts | 195° |
| 2026-05-06 13:55 | -27.40291 | 151.71921 | 2060 ft | 92 kts | 184° |
| 2026-05-06 13:55 | -27.40888 | 151.71974 | 1970 ft | 85 kts | 126° |
| 2026-05-06 13:56 | -27.41096 | 151.72510 | 1800 ft | 83 kts | 101° |
| 2026-05-06 13:56 | -27.41168 | 151.73104 | 1585 ft | 67 kts | 107° |
| 2026-05-06 13:56 | -27.41238 | 151.73508 | 1433 ft | 37 kts | 101° |
| 2026-05-06 13:56 | -27.41255 | 151.73644 | 1339 ft | 11 kts | 101° |
| 2026-05-06 13:57 | -27.41262 | 151.73696 | 1339 ft | 2 kts | 107° |
| 2026-05-06 13:57 | -27.41262 | 151.73698 | 1337 ft | 0 kts | 106° |
| 2026-05-06 14:01 | -27.41263 | 151.73698 | 1342 ft | 0 kts | 100° |
| 2026-05-06 14:01 | -27.41268 | 151.73722 | 1353 ft | 20 kts | 97° |
| 2026-05-06 14:01 | -27.41347 | 151.74235 | 1486 ft | 99 kts | 108° |
| 2026-05-06 14:02 | -27.41451 | 151.75065 | 1892 ft | 112 kts | 97° |
| 2026-05-06 14:02 | -27.41169 | 151.75860 | 2141 ft | 114 kts | 37° |
| 2026-05-06 14:02 | -27.40427 | 151.75967 | 2196 ft | 118 kts | 332° |
| 2026-05-06 14:02 | -27.39935 | 151.75171 | 2043 ft | 135 kts | 282° |
| 2026-05-06 14:03 | -27.39738 | 151.74221 | 1959 ft | 120 kts | 277° |
| 2026-05-06 14:03 | -27.39578 | 151.73274 | 1968 ft | 131 kts | 278° |
| 2026-05-06 14:03 | -27.39425 | 151.72236 | 2069 ft | 139 kts | 278° |
| 2026-05-06 14:03 | -27.39670 | 151.71259 | 2193 ft | 131 kts | 224° |
| 2026-05-06 14:04 | -27.40481 | 151.71007 | 2168 ft | 120 kts | 164° |
| 2026-05-06 14:04 | -27.40974 | 151.71565 | 2152 ft | 95 kts | 98° |
| 2026-05-06 14:04 | -27.41056 | 151.72293 | 1906 ft | 93 kts | 98° |
| 2026-05-06 14:04 | -27.41137 | 151.72970 | 1760 ft | 86 kts | 103° |
| 2026-05-06 14:05 | -27.41223 | 151.73489 | 1471 ft | 46 kts | 98° |
| 2026-05-06 14:05 | -27.41254 | 151.73657 | 1344 ft | 9 kts | 95° |
| 2026-05-06 14:05 | -27.41261 | 151.73696 | 1341 ft | 2 kts | 98° |
| 2026-05-06 14:05 | -27.41262 | 151.73699 | 1336 ft | 0 kts | 99° |
| 2026-05-06 14:12 | -27.41261 | 151.73698 | 1346 ft | 1 kts | 96° |
| 2026-05-06 14:12 | -27.41318 | 151.73989 | 1412 ft | 91 kts | 111° |
| 2026-05-06 14:13 | -27.41514 | 151.74854 | 1872 ft | 128 kts | 108° |
| 2026-05-06 14:13 | -27.41940 | 151.75763 | 2315 ft | 138 kts | 147° |
| 2026-05-06 14:13 | -27.42852 | 151.76068 | 2529 ft | 144 kts | 192° |
| 2026-05-06 14:13 | -27.43870 | 151.75854 | 2707 ft | 154 kts | 195° |
| 2026-05-06 14:14 | -27.44947 | 151.75595 | 2790 ft | 159 kts | 195° |
| 2026-05-06 14:14 | -27.45637 | 151.75419 | 3058 ft | 147 kts | 195° |
| 2026-05-06 14:14 | -27.46591 | 151.75147 | 3358 ft | 138 kts | 197° |
| 2026-05-06 14:14 | -27.47547 | 151.75014 | 3507 ft | 138 kts | 173° |
| 2026-05-06 14:15 | -27.48394 | 151.75447 | 3628 ft | 138 kts | 131° |
| 2026-05-06 14:15 | -27.49079 | 151.76699 | 3417 ft | 148 kts | 117° |
| 2026-05-06 14:15 | -27.49469 | 151.77780 | 3264 ft | 147 kts | 113° |
| 2026-05-06 14:15 | -27.49872 | 151.78908 | 3448 ft | 161 kts | 113° |
| 2026-05-06 14:16 | -27.50253 | 151.80070 | 3489 ft | 154 kts | 111° |
| 2026-05-06 14:16 | -27.50477 | 151.80824 | 3482 ft | 146 kts | 108° |
| 2026-05-06 14:16 | -27.50787 | 151.81866 | 3459 ft | 135 kts | 112° |
| 2026-05-06 14:16 | -27.51219 | 151.82831 | 3467 ft | 139 kts | 120° |
| 2026-05-06 14:17 | -27.51706 | 151.83788 | 3399 ft | 138 kts | 121° |
| 2026-05-06 14:17 | -27.52154 | 151.84740 | 3494 ft | 138 kts | 118° |
| 2026-05-06 14:17 | -27.52470 | 151.85765 | 3621 ft | 139 kts | 98° |
| 2026-05-06 14:17 | -27.52481 | 151.86828 | 3623 ft | 136 kts | 84° |
| 2026-05-06 14:18 | -27.52492 | 151.87883 | 3453 ft | 135 kts | 110° |
| 2026-05-06 14:18 | -27.52909 | 151.88857 | 3243 ft | 140 kts | 120° |
| 2026-05-06 14:18 | -27.53363 | 151.89800 | 2928 ft | 125 kts | 118° |
| 2026-05-06 14:18 | -27.53713 | 151.90554 | 2548 ft | 91 kts | 120° |
| 2026-05-06 14:19 | -27.53949 | 151.91064 | 2298 ft | 53 kts | 117° |
| 2026-05-06 14:19 | -27.54035 | 151.91238 | 2104 ft | 2 kts | 118° |
| 2026-05-06 14:19 | -27.54033 | 151.91241 | 2092 ft | 0 kts | 121° |
| 2026-05-06 14:21 | -27.54033 | 151.91242 | 2094 ft | 1 kts | 119° |
| 2026-05-06 14:22 | -27.54080 | 151.91338 | 2129 ft | 47 kts | 116° |
| 2026-05-06 14:22 | -27.54371 | 151.91974 | 2328 ft | 119 kts | 119° |
| 2026-05-06 14:22 | -27.54695 | 151.92857 | 2823 ft | 122 kts | 94° |
| 2026-05-06 14:22 | -27.54446 | 151.93698 | 3028 ft | 114 kts | 35° |
| 2026-05-06 14:23 | -27.53843 | 151.94173 | 3158 ft | 101 kts | 335° |
| 2026-05-06 14:23 | -27.53220 | 151.93924 | 3218 ft | 106 kts | 298° |
| 2026-05-06 14:23 | -27.52730 | 151.93204 | 3105 ft | 123 kts | 297° |
| 2026-05-06 14:23 | -27.52297 | 151.92338 | 3077 ft | 132 kts | 292° |
| 2026-05-06 14:24 | -27.51868 | 151.91397 | 3089 ft | 136 kts | 290° |
| 2026-05-06 14:24 | -27.51486 | 151.90426 | 3137 ft | 136 kts | 287° |
| 2026-05-06 14:24 | -27.51436 | 151.89459 | 3144 ft | 114 kts | 237° |
| 2026-05-06 14:24 | -27.51947 | 151.88899 | 3183 ft | 107 kts | 191° |
| 2026-05-06 14:25 | -27.52695 | 151.88808 | 3103 ft | 112 kts | 153° |
| 2026-05-06 14:25 | -27.53280 | 151.89334 | 2953 ft | 111 kts | 111° |
| 2026-05-06 14:25 | -27.53580 | 151.90139 | 2713 ft | 106 kts | 114° |
| 2026-05-06 14:25 | -27.53833 | 151.90779 | 2421 ft | 69 kts | 116° |
| 2026-05-06 14:26 | -27.53980 | 151.91118 | 2207 ft | 30 kts | 113° |
| 2026-05-06 14:26 | -27.54041 | 151.91255 | 2116 ft | 13 kts | 116° |
| 2026-05-06 14:26 | -27.54063 | 151.91307 | 2105 ft | 3 kts | 121° |
| 2026-05-06 14:26 | -27.54071 | 151.91319 | 2093 ft | 0 kts | 115° |
| 2026-05-06 14:28 | -27.54072 | 151.91318 | 2105 ft | 1 kts | 111° |
| 2026-05-06 14:29 | -27.54124 | 151.91434 | 2121 ft | 58 kts | 119° |
| 2026-05-06 14:29 | -27.54433 | 151.92094 | 2483 ft | 111 kts | 120° |
| 2026-05-06 14:29 | -27.54661 | 151.92947 | 3102 ft | 117 kts | 78° |
| 2026-05-06 14:29 | -27.54274 | 151.93707 | 3330 ft | 112 kts | 19° |
| 2026-05-06 14:30 | -27.53532 | 151.93770 | 3538 ft | 115 kts | 319° |
| 2026-05-06 14:30 | -27.52961 | 151.93042 | 3520 ft | 142 kts | 292° |
| 2026-05-06 14:30 | -27.52523 | 151.91999 | 3650 ft | 156 kts | 291° |
| 2026-05-06 14:30 | -27.52106 | 151.90815 | 3844 ft | 165 kts | 289° |
| 2026-05-06 14:31 | -27.51709 | 151.89586 | 4127 ft | 168 kts | 287° |
| 2026-05-06 14:31 | -27.51340 | 151.88337 | 4398 ft | 164 kts | 287° |
| 2026-05-06 14:31 | -27.51011 | 151.87160 | 4531 ft | 154 kts | 286° |
| 2026-05-06 14:31 | -27.50770 | 151.86038 | 4520 ft | 144 kts | 279° |
| 2026-05-06 14:32 | -27.50598 | 151.84919 | 4453 ft | 149 kts | 280° |
| 2026-05-06 14:32 | -27.50346 | 151.83784 | 4437 ft | 153 kts | 287° |
| 2026-05-06 14:32 | -27.49920 | 151.82653 | 4393 ft | 158 kts | 296° |
| 2026-05-06 14:32 | -27.49450 | 151.81542 | 4235 ft | 156 kts | 294° |
| 2026-05-06 14:33 | -27.48989 | 151.80429 | 4347 ft | 158 kts | 297° |
| 2026-05-06 14:33 | -27.48508 | 151.79325 | 4383 ft | 156 kts | 297° |
| 2026-05-06 14:33 | -27.48046 | 151.78245 | 4540 ft | 149 kts | 297° |
| 2026-05-06 14:33 | -27.47606 | 151.77193 | 4326 ft | 150 kts | 296° |
| 2026-05-06 14:34 | -27.47192 | 151.76088 | 4159 ft | 155 kts | 295° |
| 2026-05-06 14:34 | -27.46680 | 151.74994 | 3906 ft | 159 kts | 301° |
| 2026-05-06 14:34 | -27.46094 | 151.73961 | 3520 ft | 153 kts | 308° |
| 2026-05-06 14:34 | -27.45229 | 151.73245 | 3310 ft | 159 kts | 338° |
| 2026-05-06 14:35 | -27.44132 | 151.73128 | 3454 ft | 157 kts | 3° |
| 2026-05-06 14:35 | -27.43100 | 151.73222 | 3602 ft | 145 kts | 6° |
| 2026-05-06 14:35 | -27.42095 | 151.73325 | 3587 ft | 146 kts | 5° |
| 2026-05-06 14:35 | -27.41097 | 151.73442 | 3551 ft | 140 kts | 7° |
| 2026-05-06 14:36 | -27.40149 | 151.73553 | 3289 ft | 133 kts | 6° |
| 2026-05-06 14:36 | -27.39261 | 151.73756 | 3210 ft | 127 kts | 24° |
| 2026-05-06 14:36 | -27.38509 | 151.74108 | 3369 ft | 109 kts | 353° |
| 2026-05-06 14:36 | -27.37968 | 151.73742 | 3438 ft | 96 kts | 286° |
| 2026-05-06 14:37 | -27.37741 | 151.72991 | 2811 ft | 110 kts | 278° |
| 2026-05-06 14:37 | -27.37744 | 151.72183 | 2528 ft | 99 kts | 241° |
| 2026-05-06 14:37 | -27.38244 | 151.71786 | 2343 ft | 97 kts | 197° |
| 2026-05-06 14:37 | -27.39021 | 151.71618 | 2219 ft | 123 kts | 193° |
| 2026-05-06 14:38 | -27.39794 | 151.71461 | 2076 ft | 99 kts | 193° |
| 2026-05-06 14:38 | -27.40392 | 151.71440 | 1943 ft | 77 kts | 163° |
| 2026-05-06 14:38 | -27.40781 | 151.71821 | 1706 ft | 79 kts | 115° |
| 2026-05-06 14:38 | -27.40890 | 151.72311 | 1463 ft | 53 kts | 105° |
| 2026-05-06 14:39 | -27.40935 | 151.72621 | 1340 ft | 25 kts | 105° |
| 2026-05-06 14:39 | -27.40962 | 151.72783 | 1334 ft | 20 kts | 98° |
| 2026-05-06 14:39 | -27.40985 | 151.72944 | 1333 ft | 20 kts | 100° |
| 2026-05-06 14:39 | -27.41009 | 151.73099 | 1332 ft | 21 kts | 99° |
| 2026-05-06 14:40 | -27.41032 | 151.73252 | 1332 ft | 19 kts | 99° |
| 2026-05-06 14:40 | -27.41053 | 151.73387 | 1332 ft | 16 kts | 100° |
| 2026-05-06 14:40 | -27.41070 | 151.73479 | 1331 ft | 7 kts | 130° |
| 2026-05-06 14:40 | -27.41117 | 151.73484 | 1333 ft | 3 kts | 193° |
| 2026-05-06 14:41 | -27.41119 | 151.73483 | 1333 ft | 1 kts | 193° |
| 2026-05-06 14:41 | -27.41144 | 151.73476 | 1333 ft | 5 kts | 193° |
| 2026-05-06 14:41 | -27.41194 | 151.73464 | 1333 ft | 6 kts | 191° |
| 2026-05-06 14:41 | -27.41245 | 151.73455 | 1333 ft | 9 kts | 189° |
| 2026-05-06 14:42 | -27.41298 | 151.73447 | 1333 ft | 5 kts | 164° |
| 2026-05-06 14:42 | -27.41318 | 151.73497 | 1333 ft | 9 kts | 97° |
| 2026-05-06 14:42 | -27.41326 | 151.73562 | 1333 ft | 7 kts | 99° |
| 2026-05-06 14:42 | -27.41333 | 151.73613 | 1333 ft | 5 kts | 92° |
| 2026-05-06 14:43 | -27.41314 | 151.73631 | 1333 ft | 4 kts | 323° |
| 2026-05-06 14:43 | -27.41308 | 151.73610 | 1333 ft | 0 kts | 278° |
| 2026-05-06 14:43 | -27.41308 | 151.73608 | 1337 ft | 0 kts | 279° |
| 2026-05-06 14:45 | -27.41307 | 151.73608 | 1337 ft | 0 kts | 279° |
| 2026-05-06 14:48 | -27.41308 | 151.73608 | 1337 ft | 0 kts | 279° |